createdAt,value
2023-03-24T00:03:09.048Z,93712.00
2023-03-24T00:07:15.215Z,93717.00
2023-03-24T00:11:21.462Z,93702.00
2023-03-24T00:15:25.906Z,93698.00
2023-03-24T00:19:30.898Z,93692.00
2023-03-24T00:23:35.374Z,93693.00
2023-03-24T00:27:40.273Z,93691.00
2023-03-24T00:31:43.850Z,93698.00
2023-03-24T00:35:49.336Z,93680.00
2023-03-24T00:39:54.199Z,93685.00
2023-03-24T00:44:00.037Z,93682.00
2023-03-24T00:48:05.290Z,93679.00
2023-03-24T00:52:11.926Z,93666.00
2023-03-24T00:56:15.719Z,93660.00
2023-03-24T01:00:21.567Z,93664.00
2023-03-24T01:04:26.580Z,93657.00
2023-03-24T01:08:32.356Z,93651.00
2023-03-24T01:12:38.355Z,93647.00
2023-03-24T01:16:44.027Z,93643.00
2023-03-24T01:20:49.681Z,93641.00
2023-03-24T01:24:56.188Z,93627.00
2023-03-24T01:28:59.832Z,93626.00
2023-03-24T01:33:03.509Z,93624.00
2023-03-24T01:37:07.249Z,93630.00
2023-03-24T01:41:12.781Z,93608.00
2023-03-24T01:45:45.190Z,93618.00
2023-03-24T01:49:53.970Z,93621.00
2023-03-24T01:54:01.349Z,93620.00
2023-03-24T01:58:07.524Z,93604.00
2023-03-24T02:02:24.315Z,93617.00
2023-03-24T02:06:33.961Z,93611.00
2023-03-24T02:10:40.252Z,93613.00
2023-03-24T02:14:46.645Z,93607.00
2023-03-24T02:18:59.345Z,93608.00
2023-03-24T02:23:45.754Z,93609.00
2023-03-24T02:28:06.220Z,93589.00
2023-03-24T02:32:33.341Z,93589.00
2023-03-24T02:37:03.886Z,93587.00
2023-03-24T02:41:21.651Z,93575.00
2023-03-24T02:45:34.193Z,93570.00
2023-03-24T02:49:46.001Z,93571.00
2023-03-24T02:54:01.010Z,93585.00
2023-03-24T02:58:12.542Z,93572.00
2023-03-24T03:02:25.483Z,93575.00
2023-03-24T03:06:37.959Z,93553.00
2023-03-24T03:10:45.239Z,93552.00
2023-03-24T03:14:54.718Z,93536.00
2023-03-24T03:19:02.053Z,93538.00
2023-03-24T03:23:09.707Z,93545.00
2023-03-24T03:27:19.006Z,93537.00
2023-03-24T03:31:31.007Z,93532.00
2023-03-24T03:35:38.900Z,93529.00
2023-03-24T03:39:48.284Z,93513.00
2023-03-24T03:43:53.513Z,93526.00
2023-03-24T03:47:59.466Z,93525.00
2023-03-24T03:52:04.278Z,93520.00
2023-03-24T03:56:08.476Z,93523.00
2023-03-24T04:00:20.757Z,93534.00
2023-03-24T04:05:10.388Z,93519.00
2023-03-24T04:09:35.270Z,93523.00
2023-03-24T04:13:49.614Z,93514.00
2023-03-24T04:18:15.596Z,93517.00
2023-03-24T04:22:44.893Z,93519.00
2023-03-24T04:27:01.188Z,93514.00
2023-03-24T04:31:15.136Z,93510.00
2023-03-24T04:35:31.696Z,93498.00
2023-03-24T04:39:54.150Z,93507.00
2023-03-24T04:44:00.141Z,93500.00
2023-03-24T04:48:06.874Z,93489.00
2023-03-24T04:52:18.503Z,93481.00
2023-03-24T04:56:42.766Z,93469.00
2023-03-24T05:00:55.634Z,93456.00
2023-03-24T05:04:59.974Z,93465.00
2023-03-24T05:09:10.525Z,93453.00
2023-03-24T05:13:22.775Z,93444.00
2023-03-24T05:17:31.093Z,93452.00
2023-03-24T05:21:36.134Z,93456.00
2023-03-24T05:30:07.788Z,93456.00
2023-03-24T05:34:35.554Z,93452.00
2023-03-24T05:38:46.008Z,93447.00
2023-03-24T05:42:53.004Z,93447.00
2023-03-24T05:47:00.629Z,93466.00
2023-03-24T05:51:10.370Z,93443.00
2023-03-24T05:55:18.229Z,93444.00
2023-03-24T05:59:25.547Z,93464.00
2023-03-24T06:03:35.768Z,93456.00
2023-03-24T06:07:44.215Z,93462.00
2023-03-24T06:11:50.352Z,93456.00
2023-03-24T06:15:54.998Z,93430.00
2023-03-24T06:20:20.615Z,93433.00
2023-03-24T06:24:36.604Z,93454.00
2023-03-24T06:29:21.284Z,93447.00
2023-03-24T06:33:26.124Z,93429.00
2023-03-24T06:37:37.131Z,93431.00
2023-03-24T06:41:44.098Z,93436.00
2023-03-24T06:45:51.595Z,93433.00
2023-03-24T06:49:59.012Z,93436.00
2023-03-24T06:54:09.853Z,93435.00
2023-03-24T06:58:15.191Z,93444.00
2023-03-24T07:02:43.170Z,93443.00
2023-03-24T07:07:04.630Z,93435.00
2023-03-24T07:11:14.992Z,93414.00
2023-03-24T07:15:32.318Z,93446.00
2023-03-24T07:19:36.690Z,93441.00
2023-03-24T07:24:00.390Z,93444.00
2023-03-24T07:29:05.948Z,93446.00
2023-03-24T07:33:20.390Z,93440.00
2023-03-24T07:37:30.140Z,93438.00
2023-03-24T07:41:34.499Z,93427.00
2023-03-24T07:45:54.971Z,93442.00
2023-03-24T07:50:09.808Z,93450.00
2023-03-24T07:54:13.953Z,93448.00
2023-03-24T07:58:40.182Z,93443.00
2023-03-24T08:03:03.827Z,93435.00
2023-03-24T08:08:00.385Z,93450.00
2023-03-24T08:12:10.273Z,93427.00
2023-03-24T08:16:24.923Z,93428.00
2023-03-24T08:21:31.209Z,93452.00
2023-03-24T08:25:37.630Z,93455.00
2023-03-24T08:29:41.417Z,93448.00
2023-03-24T08:34:11.801Z,93444.00
2023-03-24T08:38:18.751Z,93446.00
2023-03-24T08:43:00.129Z,93441.00
2023-03-24T08:47:05.261Z,93434.00
2023-03-24T08:52:11.493Z,93429.00
2023-03-24T08:56:15.094Z,93427.00
2023-03-24T09:00:45.163Z,93423.00
2023-03-24T09:04:54.175Z,93418.00
2023-03-24T09:08:57.754Z,93418.00
2023-03-24T09:13:08.094Z,93425.00
2023-03-24T09:17:12.115Z,93417.00
2023-03-24T09:21:43.343Z,93429.00
2023-03-24T09:25:51.243Z,93403.00
2023-03-24T09:30:03.070Z,93428.00
2023-03-24T09:34:25.265Z,93420.00
2023-03-24T09:38:35.362Z,93428.00
2023-03-24T09:42:44.244Z,93422.00
2023-03-24T09:46:54.119Z,93432.00
2023-03-24T09:55:53.052Z,93404.00
2023-03-24T10:00:00.467Z,93416.00
2023-03-24T10:04:05.928Z,93409.00
2023-03-24T10:08:45.079Z,93417.00
2023-03-24T10:12:52.604Z,93404.00
2023-03-24T10:17:02.150Z,93414.00
2023-03-24T10:21:29.984Z,93407.00
2023-03-24T10:25:51.743Z,93402.00
2023-03-24T10:30:05.068Z,93402.00
2023-03-24T10:34:12.943Z,93381.00
2023-03-24T10:38:25.523Z,93383.00
2023-03-24T10:51:49.154Z,93404.00
2023-03-24T10:55:54.270Z,93398.00
2023-03-24T11:00:00.290Z,93424.00
2023-03-24T11:04:09.553Z,93418.00
2023-03-24T11:08:32.299Z,93415.00
2023-03-24T11:12:40.262Z,93427.00
2023-03-24T11:16:46.166Z,93409.00
2023-03-24T11:25:30.616Z,93410.00
2023-03-24T11:34:28.914Z,93398.00
2023-03-24T11:38:36.453Z,93389.00
2023-03-24T11:42:45.925Z,93403.00
2023-03-24T11:46:53.896Z,93407.00
2023-03-24T11:56:42.786Z,93413.00
2023-03-24T12:00:52.256Z,93396.00
2023-03-24T12:05:11.505Z,93410.00
2023-03-24T12:09:45.280Z,93395.00
2023-03-24T12:13:51.779Z,93394.00
2023-03-24T12:18:28.047Z,93393.00
2023-03-24T12:22:47.893Z,93416.00
2023-03-24T12:26:57.017Z,93424.00
2023-03-24T12:31:48.089Z,93422.00
2023-03-24T12:36:32.039Z,93422.00
2023-03-24T12:41:14.622Z,93414.00
2023-03-24T12:45:29.946Z,93424.00
2023-03-24T12:49:57.505Z,93420.00
2023-03-24T12:54:37.021Z,93422.00
2023-03-24T12:58:46.048Z,93432.00
2023-03-24T13:02:53.692Z,93428.00
2023-03-24T13:07:19.500Z,93438.00
2023-03-24T13:11:33.798Z,93428.00
2023-03-24T13:15:45.658Z,93418.00
2023-03-24T13:19:51.330Z,93459.00
2023-03-24T13:24:15.351Z,93447.00
2023-03-24T13:28:31.012Z,93439.00
2023-03-24T13:32:40.814Z,93439.00
2023-03-24T13:36:48.671Z,93444.00
2023-03-24T13:40:55.641Z,93435.00
2023-03-24T13:45:08.230Z,93446.00
2023-03-24T13:49:15.855Z,93434.00
2023-03-24T13:54:09.729Z,93442.00
2023-03-24T13:58:37.464Z,93442.00
2023-03-24T14:02:50.143Z,93444.00
2023-03-24T14:06:54.600Z,93446.00
2023-03-24T14:10:58.328Z,93442.00
2023-03-24T14:15:28.900Z,93443.00
2023-03-24T14:19:55.124Z,93442.00
2023-03-24T14:23:59.794Z,93432.00
2023-03-24T14:28:21.248Z,93438.00
2023-03-24T14:32:25.803Z,93433.00
2023-03-24T14:37:01.606Z,93435.00
2023-03-24T14:41:09.841Z,93436.00
2023-03-24T14:45:54.214Z,93424.00
2023-03-24T14:49:59.159Z,93434.00
2023-03-24T14:54:07.481Z,93417.00
2023-03-24T14:58:25.094Z,93426.00
2023-03-24T15:02:43.717Z,93417.00
2023-03-24T15:06:48.790Z,93392.00
2023-03-24T15:11:24.481Z,93382.00
2023-03-24T15:15:28.174Z,93386.00
2023-03-24T15:19:37.360Z,93370.00
2023-03-24T15:23:41.073Z,93347.00
2023-03-24T15:28:19.964Z,93361.00
2023-03-24T15:32:27.642Z,93370.00
2023-03-24T15:37:40.579Z,93352.00
2023-03-24T15:41:45.143Z,93355.00
2023-03-24T15:46:24.011Z,93366.00
2023-03-24T15:50:36.586Z,93326.00
2023-03-24T15:54:43.081Z,93313.00
2023-03-24T15:58:53.777Z,93303.00
2023-03-24T16:03:08.226Z,93296.00
2023-03-24T16:07:29.736Z,93283.00
2023-03-24T16:11:33.283Z,93287.00
2023-03-24T16:15:49.450Z,93317.00
2023-03-24T16:19:54.425Z,93311.00
2023-03-24T16:24:14.685Z,93311.00
2023-03-24T16:28:21.660Z,93321.00
2023-03-24T16:32:39.833Z,93301.00
2023-03-24T16:36:44.783Z,93291.00
2023-03-24T16:41:20.380Z,93321.00
2023-03-24T16:45:23.988Z,93321.00
2023-03-24T16:49:46.840Z,93336.00
2023-03-24T16:53:51.852Z,93328.00
2023-03-24T16:57:58.913Z,93336.00
2023-03-24T17:02:05.929Z,93320.00
2023-03-24T17:06:41.540Z,93318.00
2023-03-24T17:10:49.397Z,93325.00
2023-03-24T17:14:59.271Z,93333.00
2023-03-24T17:19:02.746Z,93325.00
2023-03-24T17:23:10.704Z,93319.00
2023-03-24T17:27:19.116Z,93322.00
2023-03-24T17:31:47.323Z,93308.00
2023-03-24T17:36:42.928Z,93337.00
2023-03-24T17:40:47.798Z,93332.00
2023-03-24T17:44:55.207Z,93329.00
2023-03-24T17:48:58.598Z,93301.00
2023-03-24T17:53:06.303Z,93323.00
2023-03-24T17:57:11.774Z,93313.00
2023-03-24T18:01:41.865Z,93322.00
2023-03-24T18:05:45.559Z,93325.00
2023-03-24T18:09:49.157Z,93320.00
2023-03-24T18:13:52.716Z,93350.00
2023-03-24T18:18:23.583Z,93369.00
2023-03-24T18:22:27.787Z,93367.00
2023-03-24T18:26:32.011Z,93374.00
2023-03-24T18:30:38.021Z,93371.00
2023-03-24T18:34:45.043Z,93370.00
2023-03-24T18:38:49.164Z,93379.00
2023-03-24T18:42:53.261Z,93355.00
2023-03-24T18:47:35.047Z,93386.00
2023-03-24T18:51:39.954Z,93374.00
2023-03-24T18:55:48.502Z,93387.00
2023-03-24T18:59:53.518Z,93372.00
2023-03-24T19:04:00.561Z,93367.00
2023-03-24T19:08:07.499Z,93372.00
2023-03-24T19:12:17.222Z,93374.00
2023-03-24T19:16:22.041Z,93368.00
2023-03-24T19:20:44.750Z,93377.00
2023-03-24T19:24:49.599Z,93370.00
2023-03-24T19:28:53.289Z,93368.00
2023-03-24T19:32:57.201Z,93374.00
2023-03-24T19:37:02.168Z,93374.00
2023-03-24T19:42:17.601Z,93387.00
2023-03-24T19:46:23.278Z,93350.00
2023-03-24T19:50:27.601Z,93359.00
2023-03-24T19:54:47.681Z,93353.00
2023-03-24T19:58:51.571Z,93369.00
2023-03-24T20:02:58.955Z,93352.00
2023-03-24T20:07:32.868Z,93366.00
2023-03-24T20:11:37.695Z,93353.00
2023-03-24T20:15:42.865Z,93327.00
2023-03-24T20:19:48.435Z,93307.00
2023-03-24T20:24:19.899Z,93344.00
2023-03-24T20:28:38.154Z,93337.00
2023-03-24T20:32:41.806Z,93361.00
2023-03-24T20:36:54.202Z,93354.00
2023-03-24T20:41:01.966Z,93322.00
2023-03-24T20:45:13.282Z,93299.00
2023-03-24T20:49:17.886Z,93299.00
2023-03-24T20:53:38.512Z,93266.00
2023-03-24T20:57:42.588Z,93351.00
2023-03-24T21:01:48.768Z,93322.00
2023-03-24T21:05:52.724Z,93314.00
2023-03-24T21:09:59.137Z,93345.00
2023-03-24T21:14:03.888Z,93340.00
2023-03-24T21:18:08.509Z,93332.00
2023-03-24T21:22:14.820Z,93355.00
2023-03-24T21:26:31.336Z,93348.00
2023-03-24T21:30:35.631Z,93384.00
2023-03-24T21:35:06.116Z,93374.00
2023-03-24T21:39:10.513Z,93373.00
2023-03-24T21:43:16.359Z,93369.00
2023-03-24T21:48:14.202Z,93339.00
2023-03-24T21:52:18.996Z,93349.00
2023-03-24T21:56:22.835Z,93334.00
2023-03-24T22:00:30.138Z,93350.00
2023-03-24T22:04:38.321Z,93353.00
2023-03-24T22:08:49.373Z,93352.00
2023-03-24T22:12:54.855Z,93328.00
2023-03-24T22:16:59.923Z,93314.00
2023-03-24T22:22:02.405Z,93335.00
2023-03-24T22:26:08.318Z,93307.00
2023-03-24T22:30:14.927Z,93344.00
2023-03-24T22:34:56.128Z,93369.00
2023-03-24T22:39:01.217Z,93368.00
2023-03-24T22:43:05.859Z,93362.00
2023-03-24T22:47:09.265Z,93354.00
2023-03-24T22:51:19.201Z,93391.00
2023-03-24T22:55:24.258Z,93343.00
2023-03-24T22:59:36.191Z,93387.00
2023-03-24T23:03:39.732Z,93377.00
2023-03-24T23:07:44.175Z,93364.00
2023-03-24T23:11:49.278Z,93383.00
2023-03-24T23:15:53.811Z,93375.00
2023-03-24T23:20:54.901Z,93373.00
2023-03-24T23:25:00.740Z,93377.00
2023-03-24T23:29:09.676Z,93379.00
2023-03-24T23:33:41.434Z,93390.00
2023-03-24T23:37:44.962Z,93390.00
2023-03-24T23:42:08.914Z,93374.00
2023-03-24T23:46:13.758Z,93390.00
2023-03-24T23:50:21.052Z,93389.00
2023-03-24T23:54:24.547Z,93353.00
2023-03-24T23:59:05.564Z,93348.00
